Time;durP1;ratioP1;P1;durP2;ratioP2;P2;SDS_P1;SDS_P2;PMS_P1;PMS_P2;Temp;Humidity;BMP_temperature;BMP_pressure;BME280_temperature;BME280_humidity;BME280_pressure;Samples;Min_cycle;Max_cycle;Signal;HPM_P1;HPM_P2
2023/03/29 00:02:02;;;;;;;;;;;;;;;26.97;39.04;94575.75;5034720;28;8868;-55
2023/03/29 00:04:35;;;;;;;;;;;;;;;26.95;39.11;94605.88;5031115;28;7141;-55
2023/03/29 00:07:06;;;;;;;;;;;;;;;26.94;39.26;94613.41;5005774;28;8654;-55
2023/03/29 00:09:49;;;;;;;;;;;;;;;26.94;39.91;94618.16;4998533;28;7281;-55
2023/03/29 00:12:27;;;;;;;;;;;;;;;26.93;39.49;94617.41;4998752;28;8690;-55
2023/03/29 00:15:12;;;;;;;;;;;;;;;26.93;39.13;94603.63;5029204;28;8732;-55
2023/03/29 00:17:39;;;;;;;;;;;;;;;26.92;39.10;94596.59;5004182;28;9161;-55
2023/03/29 00:20:43;;;;;;;;;;;;;;;26.94;39.08;94593.31;5013953;28;8982;-55
2023/03/29 00:23:10;;;;;;;;;;;;;;;26.93;39.13;94603.63;4998827;28;8976;-55
2023/03/29 00:25:55;;;;;;;;;;;;;;;26.92;39.32;94634.50;5015089;28;9435;-55
2023/03/29 00:28:28;;;;;;;;;;;;;;;26.90;39.24;94654.34;5002868;28;9342;-56
2023/03/29 00:31:09;;;;;;;;;;;;;;;26.90;39.00;94655.06;4999846;28;7224;-56
2023/03/29 00:33:37;;;;;;;;;;;;;;;26.90;39.12;94646.78;5026958;28;9153;-55
2023/03/29 00:36:13;;;;;;;;;;;;;;;26.90;39.39;94618.47;5022603;28;9316;-55
2023/03/29 00:38:39;;;;;;;;;;;;;;;26.90;39.01;94615.69;5014799;28;9001;-55
2023/03/29 00:41:09;;;;;;;;;;;;;;;26.90;39.26;94602.63;5014696;28;9890;-55
2023/03/29 00:43:56;;;;;;;;;;;;;;;26.88;39.15;94590.63;5001804;28;6998;-55
2023/03/29 00:46:25;;;;;;;;;;;;;;;26.88;39.11;94596.88;5002468;28;7672;-55
2023/03/29 00:48:54;;;;;;;;;;;;;;;26.87;39.33;94600.91;5024751;28;8794;-55
2023/03/29 00:51:25;;;;;;;;;;;;;;;26.87;39.30;94589.13;5031678;28;9392;-55
2023/03/29 00:54:02;;;;;;;;;;;;;;;26.87;39.67;94587.13;4994694;28;9619;-55
2023/03/29 00:56:39;;;;;;;;;;;;;;;26.87;39.52;94576.06;5008993;28;7297;-55
2023/03/29 00:59:20;;;;;;;;;;;;;;;26.85;39.38;94584.13;5026336;28;9024;-55
2023/03/29 01:02:06;;;;;;;;;;;;;;;26.85;39.52;94581.34;5006908;28;7508;-55
2023/03/29 01:04:52;;;;;;;;;;;;;;;26.83;39.06;94572.09;5000377;28;9052;-55
2023/03/29 01:07:34;;;;;;;;;;;;;;;26.82;39.16;94563.06;4992691;28;7465;-55
2023/03/29 01:10:08;;;;;;;;;;;;;;;26.84;39.15;94562.53;4998459;28;7029;-55
2023/03/29 01:13:08;;;;;;;;;;;;;;;26.83;39.29;94561.06;5027747;28;9435;-55
2023/03/29 01:15:46;;;;;;;;;;;;;;;26.83;39.04;94566.56;4955190;28;7199;-55
2023/03/29 01:18:23;;;;;;;;;;;;;;;26.82;39.04;94567.81;4953548;28;9168;-55
2023/03/29 01:21:28;;;;;;;;;;;;;;;26.83;39.56;94550.00;4959396;28;9035;-55
2023/03/29 01:24:14;;;;;;;;;;;;;;;26.84;39.51;94534.94;4975118;28;7236;-56
2023/03/29 01:30:03;;;;;;;;;;;;;;;26.80;39.26;94531.72;4963210;28;7052;-55
2023/03/29 01:33:20;;;;;;;;;;;;;;;26.82;39.12;94523.66;4964360;28;9025;-55
2023/03/29 01:36:03;;;;;;;;;;;;;;;26.79;39.23;94517.19;4884999;29;9487;-55
2023/03/29 01:39:03;;;;;;;;;;;;;;;26.80;39.45;94520.69;4875685;29;9393;-55
2023/03/29 01:42:18;;;;;;;;;;;;;;;26.80;39.26;94515.91;4820050;29;9635;-55
2023/03/29 01:44:57;;;;;;;;;;;;;;;26.80;39.42;94517.91;4838164;29;8755;-55
2023/03/29 01:47:51;;;;;;;;;;;;;;;26.80;39.01;94520.69;4814046;29;7043;-55
2023/03/29 01:51:02;;;;;;;;;;;;;;;26.79;39.19;94513.69;4826570;29;8871;-55
2023/03/29 01:53:38;;;;;;;;;;;;;;;26.77;39.41;94516.22;4850122;29;10000;-55
2023/03/29 01:56:26;;;;;;;;;;;;;;;26.74;38.82;94504.19;4874731;29;7059;-55
2023/03/29 01:59:12;;;;;;;;;;;;;;;26.76;39.25;94500.91;4856779;29;7491;-55
2023/03/29 02:01:47;;;;;;;;;;;;;;;26.73;39.38;94501.94;4858189;29;7272;-55
2023/03/29 02:04:24;;;;;;;;;;;;;;;26.74;39.53;94497.91;4856199;29;8963;-55
2023/03/29 02:06:54;;;;;;;;;;;;;;;26.72;39.68;94494.88;4890826;29;8188;-56
2023/03/29 02:09:22;;;;;;;;;;;;;;;26.73;39.74;94508.19;4903689;29;9035;-55
2023/03/29 02:11:51;;;;;;;;;;;;;;;26.71;39.17;94505.19;4916988;29;7014;-55
2023/03/29 02:14:24;;;;;;;;;;;;;;;26.72;39.36;94501.16;4916836;29;8039;-55
2023/03/29 02:17:18;;;;;;;;;;;;;;;26.74;39.62;94497.91;4919550;28;9335;-55
2023/03/29 02:20:03;;;;;;;;;;;;;;;26.72;39.54;94494.88;5019336;28;7261;-55
2023/03/29 02:23:08;;;;;;;;;;;;;;;26.74;39.05;94486.88;5004535;28;7022;-55
2023/03/29 02:25:49;;;;;;;;;;;;;;;26.74;39.42;94490.38;4942981;28;7264;-55
2023/03/29 02:28:36;;;;;;;;;;;;;;;26.75;39.35;94497.38;4940795;28;9389;-56
2023/03/29 02:31:36;;;;;;;;;;;;;;;26.73;39.51;94488.88;4931783;28;9038;-55
2023/03/29 02:34:15;;;;;;;;;;;;;;;26.74;39.46;94479.34;4856533;29;6861;-55
2023/03/29 02:37:05;;;;;;;;;;;;;;;26.73;39.51;94474.34;4863682;29;8678;-55
2023/03/29 02:39:38;;;;;;;;;;;;;;;26.73;39.60;94474.34;4869912;29;7021;-55
2023/03/29 02:42:07;;;;;;;;;;;;;;;26.71;39.32;94463.78;4874646;29;9044;-55
2023/03/29 02:45:18;;;;;;;;;;;;;;;26.73;39.08;94468.84;4854372;29;9388;-55
2023/03/29 02:48:11;;;;;;;;;;;;;;;26.72;39.37;94464.53;4854835;29;7438;-55
2023/03/29 02:50:43;;;;;;;;;;;;;;;26.73;39.54;94457.81;4843404;29;8954;-55
2023/03/29 02:53:16;;;;;;;;;;;;;;;26.73;38.83;94452.28;4843037;29;9790;-56
2023/03/29 02:55:51;;;;;;;;;;;;;;;26.71;39.08;94452.75;4848956;29;9002;-55
2023/03/29 02:58:27;;;;;;;;;;;;;;;26.73;39.23;94457.81;4841651;29;7052;-55
2023/03/29 03:01:38;;;;;;;;;;;;;;;26.73;39.33;94452.28;4859551;29;10385;-55
2023/03/29 03:04:22;;;;;;;;;;;;;;;26.71;39.25;94449.22;4899862;29;7314;-55
2023/03/29 03:06:59;;;;;;;;;;;;;;;26.68;39.41;94450.28;4897232;29;8224;-55
2023/03/29 03:10:00;;;;;;;;;;;;;;;26.73;38.95;94464.03;4912532;29;7292;-55
2023/03/29 03:12:48;;;;;;;;;;;;;;;26.72;39.25;94467.31;4912244;29;7054;-55
2023/03/29 03:15:25;;;;;;;;;;;;;;;26.72;39.21;94467.31;4898000;29;7226;-55
2023/03/29 03:17:51;;;;;;;;;;;;;;;26.72;39.36;94472.81;4895114;29;7842;-55
2023/03/29 03:20:23;;;;;;;;;;;;;;;26.73;39.92;94477.13;4890735;29;9433;-55
2023/03/29 03:22:56;;;;;;;;;;;;;;;26.70;39.39;94473.34;4894222;29;7636;-55
2023/03/29 03:25:22;;;;;;;;;;;;;;;26.74;39.30;94478.59;4935321;28;7281;-55
2023/03/29 03:27:50;;;;;;;;;;;;;;;26.73;39.04;94483.34;4938324;28;9101;-55
2023/03/29 03:30:16;;;;;;;;;;;;;;;26.73;39.15;94474.34;4933783;28;9266;-55
2023/03/29 03:32:43;;;;;;;;;;;;;;;26.73;39.10;94475.09;4956751;28;6989;-55
2023/03/29 03:35:18;;;;;;;;;;;;;;;26.72;39.25;94467.31;4954011;28;9170;-55
2023/03/29 03:38:04;;;;;;;;;;;;;;;26.70;39.67;94476.09;4964800;28;9062;-55
2023/03/29 03:40:33;;;;;;;;;;;;;;;26.71;39.54;94471.31;4968762;28;7186;-55
2023/03/29 03:43:27;;;;;;;;;;;;;;;26.72;39.27;94475.56;4999432;28;7115;-55
2023/03/29 03:45:54;;;;;;;;;;;;;;;26.70;39.38;94476.09;5000448;28;8801;-55
2023/03/29 03:48:39;;;;;;;;;;;;;;;26.70;39.39;94480.88;5001463;28;8932;-55
2023/03/29 03:51:19;;;;;;;;;;;;;;;26.68;39.87;94477.88;4999803;28;9800;-55
2023/03/29 03:54:01;;;;;;;;;;;;;;;26.68;39.51;94488.91;4993872;28;9361;-55
2023/03/29 03:56:28;;;;;;;;;;;;;;;26.66;39.27;94485.94;5002379;28;7376;-55
2023/03/29 03:58:56;;;;;;;;;;;;;;;26.68;39.43;94488.91;4998920;28;8309;-55
2023/03/29 04:01:51;;;;;;;;;;;;;;;26.68;39.09;94492.44;5000918;28;9175;-55
2023/03/29 04:04:22;;;;;;;;;;;;;;;26.69;39.36;94495.91;4933965;28;7286;-55
2023/03/29 04:07:01;;;;;;;;;;;;;;;26.69;39.43;94504.94;4944895;28;6852;-55
2023/03/29 04:09:37;;;;;;;;;;;;;;;26.66;39.55;94508.75;4942668;28;9500;-55
2023/03/29 04:12:14;;;;;;;;;;;;;;;26.65;39.27;94490.69;4919829;28;8715;-55
2023/03/29 04:15:00;;;;;;;;;;;;;;;26.66;39.52;94499.72;4928598;28;7116;-55
2023/03/29 04:17:36;;;;;;;;;;;;;;;26.65;38.82;94512.75;4935790;28;7282;-55
2023/03/29 04:20:46;;;;;;;;;;;;;;;26.67;39.39;94503.97;4922149;28;7258;-55
2023/03/29 04:23:13;;;;;;;;;;;;;;;26.65;39.49;94498.22;4940935;28;8014;-55
2023/03/29 04:25:55;;;;;;;;;;;;;;;26.65;39.39;94498.22;4932338;29;9126;-55
2023/03/29 04:28:23;;;;;;;;;;;;;;;26.65;39.07;94500.97;4925905;28;9076;-55
2023/03/29 04:30:51;;;;;;;;;;;;;;;26.64;39.41;94510.53;4930585;28;8056;-55
2023/03/29 04:33:17;;;;;;;;;;;;;;;26.65;39.24;94503.72;4928372;29;8736;-55
2023/03/29 04:35:43;;;;;;;;;;;;;;;26.64;39.55;94508.50;4927025;28;9544;-55
2023/03/29 04:38:11;;;;;;;;;;;;;;;26.66;39.01;94502.47;4936987;28;7300;-55
2023/03/29 04:40:40;;;;;;;;;;;;;;;26.66;39.59;94508.00;4932361;28;8941;-55
2023/03/29 04:43:17;;;;;;;;;;;;;;;26.64;39.81;94494.69;4993701;28;9597;-55
2023/03/29 04:45:43;;;;;;;;;;;;;;;26.63;39.59;94492.47;4998220;28;7503;-55
2023/03/29 04:48:15;;;;;;;;;;;;;;;26.64;40.07;94505.72;5033221;28;8597;-55
2023/03/29 04:50:53;;;;;;;;;;;;;;;26.65;39.64;94518.28;5003473;28;9157;-55
2023/03/29 04:53:21;;;;;;;;;;;;;;;26.64;39.21;94511.25;5013418;28;7510;-54
2023/03/29 04:55:48;;;;;;;;;;;;;;;26.57;39.70;94503.56;5003337;28;7037;-55
2023/03/29 04:58:15;;;;;;;;;;;;;;;26.52;39.81;94517.38;4999828;28;8420;-56
2023/03/29 05:00:44;;;;;;;;;;;;;;;26.52;39.97;94506.34;5021723;28;7239;-55
2023/03/29 05:03:14;;;;;;;;;;;;;;;26.53;39.66;94511.38;5002920;28;9489;-55
2023/03/29 05:05:40;;;;;;;;;;;;;;;26.54;39.55;94507.34;4997951;28;9090;-55
2023/03/29 05:08:29;;;;;;;;;;;;;;;26.57;39.84;94492.53;5031476;28;7100;-55
2023/03/29 05:11:00;;;;;;;;;;;;;;;26.56;39.69;94484.75;4999997;28;7010;-55
2023/03/29 05:13:26;;;;;;;;;;;;;;;26.61;40.00;94506.03;5031334;28;7044;-55
2023/03/29 05:16:33;;;;;;;;;;;;;;;26.61;39.73;94511.53;5032715;28;7282;-55
2023/03/29 05:19:01;;;;;;;;;;;;;;;26.61;40.15;94506.03;4999324;28;7177;-55
2023/03/29 05:21:43;;;;;;;;;;;;;;;26.58;40.03;94501.53;5029803;28;9456;-55
2023/03/29 05:24:09;;;;;;;;;;;;;;;26.55;40.13;94497.06;5003295;28;6974;-55
2023/03/29 05:26:38;;;;;;;;;;;;;;;26.55;40.36;94488.78;5005888;28;7264;-55
2023/03/29 05:29:09;;;;;;;;;;;;;;;26.55;40.40;94477.75;5005054;28;7542;-55
2023/03/29 05:31:41;;;;;;;;;;;;;;;26.56;40.33;94465.44;5000940;28;8916;-55
2023/03/29 05:34:35;;;;;;;;;;;;;;;26.58;39.82;94465.66;4997898;28;7347;-55
2023/03/29 05:37:02;;;;;;;;;;;;;;;26.57;40.73;94455.91;5004560;28;7040;-55
2023/03/29 05:39:32;;;;;;;;;;;;;;;26.60;40.15;94452.84;5001277;28;9243;-55
2023/03/29 05:41:59;;;;;;;;;;;;;;;26.59;39.68;94451.38;4999531;28;7042;-55
2023/03/29 05:44:59;;;;;;;;;;;;;;;26.61;39.94;94457.13;5007682;28;9144;-55
2023/03/29 05:47:37;;;;;;;;;;;;;;;26.62;39.33;94463.41;4913935;29;7061;-55
2023/03/29 05:50:03;;;;;;;;;;;;;;;26.63;39.95;94481.44;4911568;29;8972;-55
2023/03/29 05:52:40;;;;;;;;;;;;;;;26.63;39.57;94484.94;4904628;29;7274;-55
2023/03/29 05:55:39;;;;;;;;;;;;;;;26.62;40.01;94490.97;4919128;29;7299;-55
2023/03/29 05:58:09;;;;;;;;;;;;;;;26.62;39.34;94496.50;4872309;29;7261;-55
2023/03/29 06:00:48;;;;;;;;;;;;;;;26.64;39.12;94493.97;4872355;29;7278;-55
2023/03/29 06:03:37;;;;;;;;;;;;;;;26.66;39.19;94496.97;4885233;29;9600;-55
2023/03/29 06:06:06;;;;;;;;;;;;;;;26.58;39.56;94505.03;4872686;29;7025;-56
2023/03/29 06:08:46;;;;;;;;;;;;;;;26.60;39.41;94499.75;4891259;29;7046;-55
2023/03/29 06:11:14;;;;;;;;;;;;;;;26.59;39.62;94498.28;4870796;29;7058;-55
2023/03/29 06:13:41;;;;;;;;;;;;;;;26.60;39.43;94502.50;4873664;29;9196;-55
2023/03/29 06:16:25;;;;;;;;;;;;;;;26.62;39.03;94499.25;4870671;29;7806;-55
2023/03/29 06:19:19;;;;;;;;;;;;;;;26.59;38.91;94506.53;4891081;29;9469;-55
2023/03/29 06:21:58;;;;;;;;;;;;;;;26.59;39.51;94514.81;4875109;29;7258;-55
2023/03/29 06:24:42;;;;;;;;;;;;;;;26.59;39.22;94517.59;4906847;29;7725;-55
2023/03/29 06:27:37;;;;;;;;;;;;;;;26.59;39.59;94514.81;4921086;29;8711;-55
2023/03/29 06:30:04;;;;;;;;;;;;;;;26.57;39.49;94519.34;4916556;29;7278;-55
2023/03/29 06:32:34;;;;;;;;;;;;;;;26.57;39.08;94513.84;4916305;29;9230;-55
2023/03/29 06:35:22;;;;;;;;;;;;;;;26.58;39.36;94524.34;4899853;29;7219;-56
2023/03/29 06:38:10;;;;;;;;;;;;;;;26.57;39.14;94527.63;4908325;29;9048;-55
2023/03/29 06:40:44;;;;;;;;;;;;;;;26.60;39.10;94534.88;4890137;29;7195;-55
2023/03/29 06:43:38;;;;;;;;;;;;;;;26.58;39.45;94540.91;4916370;29;8522;-56
2023/03/29 06:46:10;;;;;;;;;;;;;;;26.58;39.16;94534.63;4900508;29;7238;-55
2023/03/29 06:48:47;;;;;;;;;;;;;;;26.58;39.71;94515.31;4915948;29;7241;-56
2023/03/29 06:51:14;;;;;;;;;;;;;;;26.58;39.36;94504.28;4912589;29;7097;-56
2023/03/29 06:53:50;;;;;;;;;;;;;;;26.57;39.39;94519.34;4894694;29;9050;-55
2023/03/29 06:56:16;;;;;;;;;;;;;;;26.56;39.62;94515.09;4895754;29;8720;-55
2023/03/29 06:58:47;;;;;;;;;;;;;;;26.57;39.43;94511.84;4947979;28;9310;-55
2023/03/29 07:01:13;;;;;;;;;;;;;;;26.54;39.51;94515.59;4968531;28;9405;-55
2023/03/29 07:04:08;;;;;;;;;;;;;;;26.58;38.76;94512.56;4967587;28;9178;-55
2023/03/29 07:07:00;;;;;;;;;;;;;;;26.58;39.35;94520.84;4966793;28;9080;-55
2023/03/29 07:09:34;;;;;;;;;;;;;;;26.57;39.74;94516.59;4971913;28;8969;-55
2023/03/29 07:12:02;;;;;;;;;;;;;;;26.56;38.93;94498.53;4978702;28;9051;-55
2023/03/29 07:14:38;;;;;;;;;;;;;;;26.58;39.54;94507.03;4966747;28;9058;-55
2023/03/29 07:17:10;;;;;;;;;;;;;;;26.55;39.10;94508.84;4973749;28;7125;-55
2023/03/29 07:19:38;;;;;;;;;;;;;;;26.56;39.42;94518.59;4978515;28;7127;-55
2023/03/29 07:22:33;;;;;;;;;;;;;;;26.58;39.22;94513.31;4985238;28;9074;-55
2023/03/29 07:25:15;;;;;;;;;;;;;;;26.59;39.53;94512.06;4858876;29;8475;-55
2023/03/29 07:27:57;;;;;;;;;;;;;;;26.60;39.11;94512.81;4872933;29;7440;-55
2023/03/29 07:30:28;;;;;;;;;;;;;;;26.57;39.36;94522.88;4861230;29;7648;-55
2023/03/29 07:33:05;;;;;;;;;;;;;;;26.60;39.00;94518.34;4860651;29;7101;-55
2023/03/29 07:35:42;;;;;;;;;;;;;;;26.60;39.53;94526.63;4844679;29;7455;-55
2023/03/29 07:38:08;;;;;;;;;;;;;;;26.60;39.02;94521.09;4867508;29;7356;-55
2023/03/29 07:41:09;;;;;;;;;;;;;;;26.62;39.50;94521.31;4876190;29;7291;-55
2023/03/29 07:43:35;;;;;;;;;;;;;;;26.59;39.75;94505.78;4879626;29;7278;-55
2023/03/29 07:46:05;;;;;;;;;;;;;;;26.61;39.94;94525.34;4873957;29;7174;-55
2023/03/29 07:48:35;;;;;;;;;;;;;;;26.61;39.43;94508.78;4889398;29;7603;-55
2023/03/29 07:51:32;;;;;;;;;;;;;;;26.61;39.86;94511.53;4879312;29;9020;-56
2023/03/29 07:54:17;;;;;;;;;;;;;;;26.61;39.97;94522.56;4843750;29;8928;-55
2023/03/29 07:56:59;;;;;;;;;;;;;;;26.60;40.04;94541.13;4859323;29;7391;-55
2023/03/29 07:59:41;;;;;;;;;;;;;;;26.60;40.49;94527.34;4864907;29;7545;-55
2023/03/29 08:02:10;;;;;;;;;;;;;;;26.60;40.48;94521.09;4927736;28;9430;-55
2023/03/29 08:04:39;;;;;;;;;;;;;;;26.58;40.11;94520.84;4956978;28;7190;-55
2023/03/29 08:07:14;;;;;;;;;;;;;;;26.59;40.37;94530.63;4958569;28;9700;-55
2023/03/29 08:09:42;;;;;;;;;;;;;;;26.60;39.89;94554.94;4958776;28;7266;-55
2023/03/29 08:12:08;;;;;;;;;;;;;;;26.59;39.91;94553.44;4964046;28;7388;-55
2023/03/29 08:14:39;;;;;;;;;;;;;;;26.59;40.48;94541.66;4957040;28;7409;-55
2023/03/29 08:17:28;;;;;;;;;;;;;;;26.62;40.04;94548.91;4953431;28;7109;-55
2023/03/29 08:20:10;;;;;;;;;;;;;;;26.56;40.21;94545.44;4938090;28;8969;-55
2023/03/29 08:22:55;;;;;;;;;;;;;;;26.56;39.99;94554.47;4938389;28;7264;-55
2023/03/29 08:25:53;;;;;;;;;;;;;;;26.56;40.49;94559.97;4953401;28;7038;-55
2023/03/29 08:28:19;;;;;;;;;;;;;;;26.54;40.45;94556.22;4892319;29;7224;-55
2023/03/29 08:30:56;;;;;;;;;;;;;;;26.54;40.18;94568.03;4915250;29;9027;-55
2023/03/29 08:33:25;;;;;;;;;;;;;;;26.53;40.76;94563.03;4909862;29;9042;-55
2023/03/29 08:35:55;;;;;;;;;;;;;;;26.58;40.65;94562.97;4910780;29;7210;-55
2023/03/29 08:38:41;;;;;;;;;;;;;;;26.60;40.16;94577.00;4926606;29;9112;-55
2023/03/29 08:41:34;;;;;;;;;;;;;;;26.56;40.20;94573.00;4906905;29;9087;-55
2023/03/29 08:44:12;;;;;;;;;;;;;;;26.59;40.13;94580.28;4917246;29;7476;-55
2023/03/29 08:47:06;;;;;;;;;;;;;;;26.61;40.14;94572.22;4916492;29;7060;-55
2023/03/29 08:49:36;;;;;;;;;;;;;;;26.59;40.31;94586.56;4928994;29;8458;-55
2023/03/29 08:52:13;;;;;;;;;;;;;;;26.59;39.99;94583.03;4915904;29;8682;-55
2023/03/29 08:54:47;;;;;;;;;;;;;;;26.57;39.75;94577.28;4909633;29;7129;-56
2023/03/29 08:57:40;;;;;;;;;;;;;;;26.57;40.66;94571.78;4912799;29;8786;-55
2023/03/29 09:00:25;;;;;;;;;;;;;;;26.57;39.92;94577.28;4929933;29;8246;-56
2023/03/29 09:03:45;;;;;;;;;;;;;;;26.54;40.25;94573.53;4937401;28;7033;-56
2023/03/29 09:06:15;;;;;;;;;;;;;;;26.57;40.41;94572.53;4919431;29;9024;-55
2023/03/29 09:09:00;;;;;;;;;;;;;;;26.58;40.79;94579.53;4934498;29;8291;-55
2023/03/29 09:11:53;;;;;;;;;;;;;;;26.58;41.02;94578.75;4933472;29;7034;-56
2023/03/29 09:14:26;;;;;;;;;;;;;;;26.58;40.65;94578.75;4928052;29;8713;-56
2023/03/29 09:17:39;;;;;;;;;;;;;;;26.54;40.64;94576.28;4925135;29;6860;-56
2023/03/29 09:24:42;;;;;;;;;;;;;;;26.60;40.75;94562.47;4875810;29;8873;-55
2023/03/29 09:28:01;;;;;;;;;;;;;;;26.59;40.71;94558.97;4861523;29;8831;-55
2023/03/29 09:31:15;;;;;;;;;;;;;;;26.59;40.08;94561.72;4801729;29;9709;-55
2023/03/29 09:34:12;;;;;;;;;;;;;;;26.59;40.20;94556.19;4717334;30;7451;-55
2023/03/29 09:37:07;;;;;;;;;;;;;;;26.59;40.39;94556.19;4713129;30;8245;-56
2023/03/29 09:39:44;;;;;;;;;;;;;;;26.57;40.89;94555.22;4710627;30;8459;-55
2023/03/29 09:42:14;;;;;;;;;;;;;;;26.60;40.29;94565.22;4760788;30;8585;-56
2023/03/29 09:44:49;;;;;;;;;;;;;;;26.58;40.59;94574.00;4765862;30;8991;-56
2023/03/29 09:47:39;;;;;;;;;;;;;;;26.57;40.26;94569.00;4751358;30;8255;-55
2023/03/29 09:50:17;;;;;;;;;;;;;;;26.59;40.57;94572.00;4755481;30;9058;-55
2023/03/29 09:52:46;;;;;;;;;;;;;;;26.59;40.30;94558.97;4769169;30;8758;-55
2023/03/29 09:55:15;;;;;;;;;;;;;;;26.58;40.85;94560.22;4768142;30;9172;-56
2023/03/29 09:57:50;;;;;;;;;;;;;;;26.59;41.02;94552.69;4781775;29;7219;-55
2023/03/29 10:00:20;;;;;;;;;;;;;;;26.57;41.27;94552.47;4784556;29;7524;-55
2023/03/29 10:02:53;;;;;;;;;;;;;;;26.56;40.83;94553.72;4812508;29;9213;-55
2023/03/29 10:05:20;;;;;;;;;;;;;;;26.55;41.63;94560.50;4838548;29;7569;-56
2023/03/29 10:07:52;;;;;;;;;;;;;;;26.51;41.75;94557.28;4966929;28;9018;-55
2023/03/29 10:10:26;;;;;;;;;;;;;;;26.45;42.17;94565.56;4996931;28;7100;-55
2023/03/29 10:13:35;;;;;;;;;;;;;;;26.43;42.36;94559.81;5021141;28;7284;-55
2023/03/29 10:16:37;;;;;;;;;;;;;;;26.45;41.74;94556.53;5012132;28;7036;-56
2023/03/29 10:19:33;;;;;;;;;;;;;;;26.44;42.75;94566.09;5004962;28;9088;-55
2023/03/29 10:22:04;;;;;;;;;;;;;;;26.45;42.00;94592.41;5038165;28;7237;-55
2023/03/29 10:24:54;;;;;;;;;;;;;;;26.43;41.75;94595.69;5005484;28;9779;-55
2023/03/29 10:28:11;;;;;;;;;;;;;;;26.43;42.41;94586.66;5013950;28;6895;-55
2023/03/29 10:30:58;;;;;;;;;;;;;;;26.42;41.93;94582.41;5010451;28;9086;-55
2023/03/29 10:33:35;;;;;;;;;;;;;;;26.43;42.25;94584.66;5004626;28;7300;-55
2023/03/29 10:36:40;;;;;;;;;;;;;;;26.47;42.03;94582.34;4999960;28;9048;-55
2023/03/29 10:39:18;;;;;;;;;;;;;;;26.48;42.10;94572.09;4920069;28;8353;-55
2023/03/29 10:41:52;;;;;;;;;;;;;;;26.52;41.84;94553.25;4946648;28;7271;-55
2023/03/29 10:44:58;;;;;;;;;;;;;;;26.48;41.99;94555.53;4958436;28;7042;-55
2023/03/29 10:47:33;;;;;;;;;;;;;;;26.41;42.49;94523.75;4906936;29;9122;-55
2023/03/29 10:50:00;;;;;;;;;;;;;;;26.50;42.31;94508.88;4917669;29;8731;-55
2023/03/29 10:52:40;;;;;;;;;;;;;;;26.52;41.76;94503.59;4933931;29;8891;-55
2023/03/29 10:55:12;;;;;;;;;;;;;;;26.51;42.27;94491.81;4934221;29;9111;-55
2023/03/29 10:58:10;;;;;;;;;;;;;;;26.51;42.00;94491.81;4909284;29;7048;-55
2023/03/29 11:01:12;;;;;;;;;;;;;;;26.53;42.06;94510.63;4909944;29;8662;-55
2023/03/29 11:04:05;;;;;;;;;;;;;;;26.55;41.51;94514.34;4880962;29;9117;-55
2023/03/29 11:07:11;;;;;;;;;;;;;;;26.61;41.56;94522.56;4896299;29;9439;-55
2023/03/29 11:10:01;;;;;;;;;;;;;;;26.62;41.76;94513.78;4894901;29;7109;-55
2023/03/29 11:12:30;;;;;;;;;;;;;;;26.65;41.77;94520.28;4893284;29;9379;-55
2023/03/29 11:15:21;;;;;;;;;;;;;;;26.64;41.99;94524.31;4928481;29;9383;-55
2023/03/29 11:18:06;;;;;;;;;;;;;;;26.66;42.06;94527.31;4921195;29;9006;-55
2023/03/29 11:20:41;;;;;;;;;;;;;;;26.68;41.45;94522.03;4910325;29;7223;-56
2023/03/29 11:23:11;;;;;;;;;;;;;;;26.71;42.02;94518.97;4934310;29;9067;-55
2023/03/29 11:25:50;;;;;;;;;;;;;;;26.75;41.78;94508.44;4927724;29;8956;-55
2023/03/29 11:28:51;;;;;;;;;;;;;;;26.78;41.24;94515.69;4922952;29;7199;-55
2023/03/29 11:31:59;;;;;;;;;;;;;;;26.78;41.27;94501.88;4929369;29;9172;-55
2023/03/29 11:34:56;;;;;;;;;;;;;;;26.83;41.37;94497.56;4934327;29;7499;-55
2023/03/29 11:37:48;;;;;;;;;;;;;;;26.83;41.39;94512.13;4932966;29;9156;-55
2023/03/29 11:40:20;;;;;;;;;;;;;;;26.81;40.66;94509.16;4978269;28;9036;-56
2023/03/29 11:42:53;;;;;;;;;;;;;;;26.77;40.90;94508.66;5006333;28;9367;-55
2023/03/29 11:45:33;;;;;;;;;;;;;;;26.78;40.98;94510.16;5023574;28;7248;-55
2023/03/29 11:48:07;;;;;;;;;;;;;;;26.75;40.89;94513.94;5018761;28;8788;-55
2023/03/29 11:50:57;;;;;;;;;;;;;;;26.75;40.98;94516.69;5009183;28;7290;-55
2023/03/29 11:53:36;;;;;;;;;;;;;;;26.74;41.09;94508.94;5025967;28;7251;-55
2023/03/29 11:56:16;;;;;;;;;;;;;;;26.71;41.23;94491.38;5008391;28;8971;-55
2023/03/29 11:58:51;;;;;;;;;;;;;;;26.69;41.10;94495.91;5003896;28;9334;-56
2023/03/29 12:01:27;;;;;;;;;;;;;;;26.69;41.33;94502.19;5035883;28;8718;-55
2023/03/29 12:03:59;;;;;;;;;;;;;;;26.68;40.92;94486.91;5004573;28;8711;-55
2023/03/29 12:06:35;;;;;;;;;;;;;;;26.69;40.97;94490.41;5005193;28;8931;-55
2023/03/29 12:09:24;;;;;;;;;;;;;;;26.69;41.19;94487.63;4997084;28;7301;-55
2023/03/29 12:12:04;;;;;;;;;;;;;;;26.69;40.83;94490.41;5037328;28;9024;-56
2023/03/29 12:14:45;;;;;;;;;;;;;;;26.71;40.88;94498.91;5007224;28;8172;-55
2023/03/29 12:17:19;;;;;;;;;;;;;;;26.70;41.29;94497.41;4996670;28;8955;-56
2023/03/29 12:20:04;;;;;;;;;;;;;;;26.69;41.42;94495.91;4995360;28;7414;-56
2023/03/29 12:22:31;;;;;;;;;;;;;;;26.69;40.46;94495.91;4998875;28;9193;-55
2023/03/29 12:25:02;;;;;;;;;;;;;;;26.69;40.53;94488.38;4991040;28;8795;-56
2023/03/29 12:27:36;;;;;;;;;;;;;;;26.71;41.09;94488.63;5001186;28;9698;-55
2023/03/29 12:30:23;;;;;;;;;;;;;;;26.70;41.21;94486.38;5008550;28;7210;-55
2023/03/29 12:33:18;;;;;;;;;;;;;;;26.70;40.50;94489.16;5008964;28;9386;-56
2023/03/29 12:36:32;;;;;;;;;;;;;;;26.71;40.61;94488.63;5005645;28;9338;-55
2023/03/29 12:38:58;;;;;;;;;;;;;;;26.71;40.49;94487.88;4985275;28;9074;-56
2023/03/29 12:41:25;;;;;;;;;;;;;;;26.73;40.67;94479.88;5010843;28;7098;-56
2023/03/29 12:43:51;;;;;;;;;;;;;;;26.72;40.68;94476.34;4999724;28;7116;-56
2023/03/29 12:46:19;;;;;;;;;;;;;;;26.74;40.35;94473.06;4999265;28;7313;-55
2023/03/29 12:48:50;;;;;;;;;;;;;;;26.72;40.67;94473.56;5038267;28;7260;-55
2023/03/29 12:51:28;;;;;;;;;;;;;;;26.76;40.42;94467.78;5009270;28;9198;-55
2023/03/29 12:54:07;;;;;;;;;;;;;;;26.76;40.40;94470.53;4997667;28;6991;-56
2023/03/29 12:56:53;;;;;;;;;;;;;;;26.78;40.13;94468.00;5008632;28;7239;-56
2023/03/29 12:59:42;;;;;;;;;;;;;;;26.78;40.39;94462.50;5004944;28;8626;-56
2023/03/29 13:02:14;;;;;;;;;;;;;;;26.81;40.75;94467.00;5032486;28;8808;-56
2023/03/29 13:04:56;;;;;;;;;;;;;;;26.85;40.29;94470.22;5017534;28;7317;-55
2023/03/29 13:07:22;;;;;;;;;;;;;;;26.85;40.25;94459.16;5007422;28;7041;-55
2023/03/29 13:10:00;;;;;;;;;;;;;;;26.87;40.08;94456.63;5002717;28;9166;-55
2023/03/29 13:12:44;;;;;;;;;;;;;;;26.88;39.84;94453.34;5017933;28;7294;-56
2023/03/29 13:15:13;;;;;;;;;;;;;;;26.89;40.06;94462.38;5026944;28;9315;-55
2023/03/29 13:18:01;;;;;;;;;;;;;;;26.88;40.07;94458.16;5030962;28;7040;-55
2023/03/29 13:20:40;;;;;;;;;;;;;;;26.87;40.22;94446.34;5029986;28;6984;-56
2023/03/29 13:23:28;;;;;;;;;;;;;;;26.87;39.77;94451.88;5009204;28;7042;-55
2023/03/29 13:26:15;;;;;;;;;;;;;;;26.86;40.16;94455.16;4999112;28;7128;-55
2023/03/29 13:29:19;;;;;;;;;;;;;;;26.82;39.84;94449.16;5008785;28;7057;-55
2023/03/29 13:32:17;;;;;;;;;;;;;;;26.83;40.04;94454.19;5005389;28;8539;-56
2023/03/29 13:35:15;;;;;;;;;;;;;;;26.80;40.08;94452.44;5008110;28;9362;-55
2023/03/29 13:38:19;;;;;;;;;;;;;;;26.80;40.16;94446.16;5007589;28;7277;-55
2023/03/29 13:40:57;;;;;;;;;;;;;;;26.77;40.26;94447.22;5018761;28;9404;-55
2023/03/29 13:43:34;;;;;;;;;;;;;;;26.78;40.69;94448.69;5003838;28;9050;-55
2023/03/29 13:46:16;;;;;;;;;;;;;;;26.76;39.87;94454.00;4996909;28;9038;-55
2023/03/29 13:49:02;;;;;;;;;;;;;;;26.77;40.38;94449.97;4997022;28;7272;-55
2023/03/29 13:52:01;;;;;;;;;;;;;;;26.76;40.46;94445.72;4998373;28;7003;-55
2023/03/29 13:54:46;;;;;;;;;;;;;;;26.75;40.29;94450.47;5033716;28;9361;-55
2023/03/29 13:57:51;;;;;;;;;;;;;;;26.75;40.88;94444.22;4993983;28;9052;-56
2023/03/29 14:00:35;;;;;;;;;;;;;;;26.73;40.57;94441.25;4943409;28;9222;-55
2023/03/29 14:03:14;;;;;;;;;;;;;;;26.71;40.67;94450.00;4947803;28;7246;-56
2023/03/29 14:05:47;;;;;;;;;;;;;;;26.72;39.94;94445.22;4941625;28;7908;-55
2023/03/29 14:08:40;;;;;;;;;;;;;;;26.74;39.98;94443.47;4954862;28;7392;-55
2023/03/29 14:11:35;;;;;;;;;;;;;;;26.74;39.94;94434.44;4943911;28;7062;-55
2023/03/29 14:14:49;;;;;;;;;;;;;;;26.73;40.64;94430.94;4947645;28;7121;-55
2023/03/29 14:17:23;;;;;;;;;;;;;;;26.73;40.51;94430.94;4909231;29;8701;-55